• Join FlightAware (Why Join?)
  • Login
  • US Flag 
12:34PM EST


 

Airport Tracker/Info


-or-


 

Live Flight TrackerFlight Track Log ✈ UAL5915 ✈ 23-Apr-2013 ✈ KIAD - KBOS

Flight Track Log - Related Links

Times and Time Zones

All times are in EDT time to prevent confusion due to time zone crossing. See the UAL5915 flight status page for this flight to view local times or setup timezone preferences in your user account.

Time Position Orientation Groundspeed Altitude Reporting Facility
EDT Latitude Longitude Course Direction KTS MPH feet Rate Location/Type
02:59PM 38.9667 -77.5167 78° East 177 204 2,000  Level Potomac TRACON
03:00PM 39.0167 -77.5333 345° North 211 243 4,900 2,520 Climbing Potomac TRACON
03:01PM 39.0000 -77.1069 90° East  Level FlightAware Approximate
03:01PM 39.0833 -77.5333 360° North 259 298 7,400  Level Potomac TRACON
03:02PM 39.0224 -76.9884 76° East  Level FlightAware Approximate
03:02PM 39.1333 -77.4833 38° Northeast 277 319 9,600  Level Potomac TRACON
03:03PM 39.0440 -76.8694 78° East  Level FlightAware Approximate
03:03PM 39.1500 -77.3833 78° East 349 402 10,000  Level Potomac TRACON
03:04PM 39.0639 -76.7499 78° East  Level FlightAware Approximate
03:04PM 39.0950 -77.1642 108° East 393 452 12,200  Level Washington Center
03:05PM 39.0694 -77.0353 104° East 385 443 14,000 1,920 Climbing Washington Center
03:06PM 39.0814 -76.9019 83° East 367 422 16,100 1,980 Climbing Washington Center
03:07PM 39.0953 -76.7683 82° East 367 422 18,000 1,620 Climbing Washington Center
03:08PM 39.1089 -76.6322 83° East 373 429 19,400 1,440 Climbing Washington Center
03:09PM 39.1225 -76.4958 83° East 379 436 20,900 1,500 Climbing Washington Center
03:10PM 39.1361 -76.3542 83° East 391 450 22,500 1,020 Climbing Washington Center
03:11PM 39.1494 -76.2097 83° East 401 461 23,000 240 Climbing Washington Center
03:12PM 39.1708 -76.0869 77° East 401 461 23,000 120 Level Washington Center
03:13PM 39.1858 -75.9397 82° East 401 461 23,300 660 Climbing Washington Center
03:14PM 39.2403 -75.8167 60° Northeast 393 452 24,400 1,200 Climbing Washington Center
03:15PM 39.3217 -75.7178 43° Northeast 385 443 25,700 900 Climbing Washington Center
03:16PM 39.4031 -75.6103 46° Northeast 392 451 26,200 960 Climbing Washington Center
03:17PM 39.4864 -75.5028 45° Northeast 409 471 27,700 1,440 Climbing Washington Center
03:18PM 39.5656 -75.3978 46° Northeast 409 471 29,100 1,320 Climbing Washington Center
03:19PM 39.6464 -75.2897 46° Northeast 409 471 30,400 1,260 Climbing Washington Center
03:20PM 39.7425 -75.1525 48° Northeast 442 509 31,800 1,140 Climbing New York Center
03:21PM 39.8258 -75.0361 47° Northeast 442 509 32,900 540 Climbing New York Center
03:22PM 39.9094 -74.9142 48° Northeast 442 509 33,000  Climbing New York Center
03:23PM 39.9994 -74.7867 47° Northeast 457 526 33,000  Level New York Center
03:24PM 40.0914 -74.6564 47° Northeast 482 555 33,000  Level New York Center
03:25PM 40.1831 -74.5228 48° Northeast 488 562 33,000  Level New York Center
03:26PM 40.2806 -74.4111 41° Northeast 502 578 33,000  Level New York Center
03:27PM 40.3906 -74.2889 40° Northeast 507 583 33,000  Level New York Center
03:28PM 40.4778 -74.1489 51° Northeast 502 578 33,000 -1,140 Level New York Center
03:30PM 40.6153 -73.8972 54° Northeast 507 583 30,100 -2,100 Descending Boston Center
03:31PM 40.6900 -73.7594 54° Northeast 485 558 27,700 -2,100 Descending Boston Center
03:32PM 40.7519 -73.6319 57° Northeast 468 539 25,900 -1,800 Descending Boston Center
03:33PM 40.8197 -73.5042 55° Northeast 440 506 24,200 -1,860 Descending Boston Center
03:34PM 40.8917 -73.3900 50° Northeast 415 478 22,200 -1,680 Descending Boston Center
03:35PM 40.9761 -73.2703 47° Northeast 409 471 20,900 -1,200 Descending Boston Center
03:36PM 41.0539 -73.1558 48° Northeast 404 465 19,900 -960 Descending Boston Center
03:37PM 41.1172 -73.0381 54° Northeast 423 487 19,000 -480 Descending Boston Center
03:38PM 41.1719 -72.8950 63° Northeast 423 487 19,000  Level Boston Center
03:39PM 41.2267 -72.7519 63° Northeast 423 487 19,000  Level Boston Center
03:40PM 41.2792 -72.6114 64° Northeast 428 493 19,000  Level Boston Center
03:41PM 41.3397 -72.4567 62° Northeast 420 483 19,000  Level Boston Center
03:42PM 41.3833 -72.3406 63° Northeast 405 466 19,000 -300 Level Boston Center
03:43PM 41.4394 -72.1992 62° Northeast 387 445 18,400 -780 Descending Boston Center
03:44PM 41.4828 -72.0828 64° Northeast 387 445 17,500 -1,200 Descending Boston Center
03:45PM 41.5322 -71.9492 64° Northeast 376 433 16,100 -1,320 Descending Boston Center
03:46PM 41.5714 -71.8464 63° Northeast 353 406 14,900 -1,380 Descending Boston Center
03:47PM 41.6186 -71.7208 63° Northeast 337 388 13,400 -1,500 Descending Boston Center
03:48PM 41.6575 -71.6092 65° Northeast 331 381 12,000 -1,200 Descending Boston Center
03:49PM 41.6964 -71.5058 63° Northeast 318 366 11,000 -540 Descending Boston Center
03:50PM 41.7372 -71.4136 59° Northeast 298 343 11,000  Level Boston Center
03:51PM 41.7867 -71.3542 42° Northeast 268 308 11,000 -60 Level Boston Center
03:52PM 41.8444 -71.2892 40° Northeast 249 287 10,900 -600 Descending Boston Center
03:53PM 41.8917 -71.2325 42° Northeast 249 287 9,800 -1,200 Descending Boston Center
03:54PM 41.9600 -71.2006 19° North 235 270 8,600 -1,080 Descending Boston Center
03:55PM 42.0139 -71.1742 20° North 224 258 7,700 -960 Descending Boston Center
03:56PM 42.0497 -71.2100 323° Northwest 189 217 6,800 -1,260 Descending Boston Center
03:57PM 42.0953 -71.1839 23° Northeast 142 163 5,200 -1,380 Descending Boston Center
03:58PM 42.1261 -71.1356 49° Northeast 149 171 4,100 -900 Descending Boston Center
03:59PM 42.1569 -71.1014 39° Northeast 149 171 3,400 -540 Descending Boston Center
04:00PM 42.2167 -71.0833 13° North 157 181 3,000 -480 Descending KA90
04:01PM 42.2500 -71.0667 20° North 157 181 2,400 -600 Descending KA90